Latest Weather Observations for Yunta

IDS60801

Issued at 5:02 pm CST Monday 25 May 2015 (issued every 30 minutes, with the page automatically refreshed every 10 minutes)

About weather observations | Map of weather stations | Latest weather observations for SA | Other Formats
Station Details ID: 020062 Name: YUNTA AIRSTRIP Lat: -32.57 Lon: 139.56 Height: 300.0 m
Data from the previous 72 hours. | See also: Recent months at Yunta
Date/Time
CST
Temp
°C
App
Temp
°C
Dew
Point
Rel
Hum
%
Delta-T
°C
Wind Press
QNH
hPa
Press
MSL
hPa
Rain
since 9 am
mm
Dir
 
Spd
km/h
Gust
km/h
Spd
kts
Gust
kts
25/05:00pm 14.3 13.4 9.1 71 2.7 S 4 4 2 2 1026.6 1026.6 0.0
25/04:30pm 14.9 13.9 8.8 67 3.1 SSE 4 4 2 2 1026.1 1026.0 0.0
25/04:00pm 15.6 14.7 9.1 65 3.4 SE 4 6 2 3 1025.5 1025.5 0.0
25/03:30pm 15.9 14.4 8.6 62 3.8 SE 6 7 3 4 1025.4 1025.4 0.0
25/03:00pm 16.2 15.3 7.7 57 4.3 ESE 2 4 1 2 1025.5 1025.5 0.0
25/02:30pm 16.1 15.6 7.8 58 4.2 CALM 0 2 0 1 1025.7 1025.7 0.0
25/02:00pm 16.1 15.7 8.1 59 4.1 CALM 0 0 0 0 1025.9 1025.9 0.0
25/01:30pm 15.4 15.0 8.2 62 3.7 CALM 0 0 0 0 1026.4 1026.4 0.0
25/01:00pm 14.7 14.3 8.2 65 3.3 CALM 0 0 0 0 1026.9 1026.9 0.0
25/12:30pm 14.0 13.3 8.4 69 2.8 WSW 2 6 1 3 1027.1 1027.1 0.0
25/12:00pm 13.5 12.4 8.6 72 2.5 WSW 4 6 2 3 1027.2 1027.2 0.0
25/11:30am 13.3 12.9 8.2 71 2.6 CALM 0 2 0 1 1027.5 1027.5 0.0
25/11:00am 13.1 12.7 8.2 72 2.5 CALM 0 0 0 0 1028.0 1028.0 0.0
25/10:30am 12.1 11.3 8.0 76 2.0 SSW 2 4 1 2 1028.7 1028.7 0.0
25/10:00am 11.4 10.8 7.5 77 1.9 CALM 0 0 0 0 1029.0 1029.1 0.0
25/09:30am 10.8 10.2 7.5 80 1.6 CALM 0 0 0 0 1029.1 1029.2 0.0
25/09:00am 10.2 9.5 6.9 80 1.6 CALM 0 0 0 0 1029.0 1029.1 0.0
25/08:30am 9.5 8.7 6.6 82 1.4 CALM 0 0 0 0 1028.9 1028.9 0.0
25/08:00am 8.4 7.6 6.7 89 0.8 CALM 0 0 0 0 1028.7 1028.7 0.0
25/07:30am 7.4 6.4 5.7 89 0.8 CALM 0 0 0 0 1029.2 1029.3 0.0
25/07:00am 7.0 5.6 5.3 89 0.8 WSW 2 4 1 2 1029.0 1029.1 0.0
25/06:30am 6.9 5.4 5.2 89 0.8 SW 2 4 1 2 1028.5 1028.5 0.0
25/06:00am 6.6 5.1 4.8 88 0.8 S 2 4 1 2 1027.8 1027.8 0.0
25/05:30am 6.6 5.0 4.6 87 0.9 S 2 4 1 2 1027.7 1027.7 0.0
25/05:00am 7.2 6.1 4.9 85 1.0 CALM 0 0 0 0 1027.8 1027.8 0.0
25/04:30am 7.4 5.5 5.0 85 1.1 S 4 6 2 3 1027.5 1027.5 0.0
25/04:00am 8.4 7.5 5.9 84 1.2 CALM 0 0 0 0 1027.5 1027.5 0.0
25/03:30am 7.7 6.5 4.8 82 1.3 CALM 0 6 0 3 1027.5 1027.5 0.0
25/03:00am 8.2 6.8 5.7 84 1.1 NW 2 6 1 3 1027.6 1027.6 0.0
25/02:30am 8.2 6.8 5.3 82 1.3 ESE 2 6 1 3 1027.7 1027.7 0.0
25/02:00am 8.9 6.6 5.5 79 1.6 E 7 11 4 6 1027.6 1027.6 0.0
25/01:30am 9.6 6.9 5.8 77 1.8 ENE 9 13 5 7 1027.8 1027.8 0.0
25/01:00am 10.1 7.1 6.1 76 1.9 ENE 11 13 6 7 1027.8 1027.8 0.0
25/12:30am 10.0 7.9 6.5 79 1.7 ENE 7 9 4 5 1027.7 1027.7 0.0
25/12:00am 8.8 7.5 6.1 83 1.2 ESE 2 6 1 3 1027.8 1027.8 0.0
 
Date/Time
CST
Temp
°C
App
Temp
°C
Dew
Point
Rel
Hum
%
Delta-T
°C
Wind Press
QNH
hPa
Press
MSL
hPa
Rain
since 9 am
mm
Dir
 
Spd
km/h
Gust
km/h
Spd
kts
Gust
kts
24/11:30pm 9.4 7.2 6.3 81 1.4 E 7 9 4 5 1027.7 1027.7 0.0
24/11:00pm 9.4 7.0 6.8 84 1.2 E 9 13 5 7 1027.7 1027.7 0.0
24/10:30pm 9.0 6.9 6.6 85 1.1 ENE 7 9 4 5 1028.1 1028.1 0.0
24/10:00pm 9.4 8.7 6.8 84 1.2 CALM 0 0 0 0 1028.3 1028.3 0.0
24/09:30pm 9.8 9.1 7.1 83 1.3 CALM 0 4 0 2 1028.6 1028.6 0.0
24/09:00pm 10.1 9.1 7.2 82 1.4 SSW 2 4 1 2 1028.5 1028.5 0.0
24/08:30pm 10.3 9.7 7.2 81 1.5 CALM 0 0 0 0 1028.4 1028.4 0.0
24/08:00pm 10.9 9.1 7.2 78 1.8 NE 6 7 3 4 1028.3 1028.3 0.0
24/07:30pm 10.7 8.9 7.2 79 1.7 ENE 6 6 3 3 1028.3 1028.3 0.0
24/07:00pm 11.0 9.9 6.9 76 2.0 S 2 4 1 2 1028.3 1028.3 0.0
24/06:30pm 11.6 9.7 6.9 73 2.3 S 6 7 3 4 1028.3 1028.3 0.0
24/06:00pm 11.9 11.2 6.8 71 2.5 CALM 0 0 0 0 1028.1 1028.1 0.0
24/05:30pm 12.6 11.4 6.6 67 2.9 N 2 4 1 2 1027.8 1027.8 0.0
24/05:00pm 13.6 11.6 6.2 61 3.6 N 6 6 3 3 1027.5 1027.5 0.0
24/04:30pm 14.9 13.7 6.5 57 4.1 N 2 2 1 1 1027.6 1027.6 0.0
24/04:00pm 15.1 12.7 5.3 52 4.7 NNW 7 9 4 5 1027.7 1027.7 0.0
24/03:30pm 15.1 13.3 5.6 53 4.6 NNW 4 7 2 4 1027.4 1027.4 0.0
24/03:00pm 15.4 13.0 4.5 48 5.1 NNW 6 7 3 4 1027.2 1027.2 0.0
24/02:30pm 15.6 12.3 4.6 48 5.2 N 11 15 6 8 1027.1 1027.1 0.0
24/02:00pm 16.0 13.2 5.0 48 5.3 N 9 15 5 8 1027.1 1027.1 0.0
24/01:30pm 16.4 13.2 5.1 47 5.4 NNW 11 19 6 10 1027.4 1027.4 0.0
24/01:00pm 15.3 12.5 5.2 51 4.9 NNW 9 15 5 8 1027.7 1027.7 0.0
24/12:30pm 14.7 11.1 5.2 53 4.5 N 13 17 7 9 1028.0 1028.0 0.0
24/12:00pm 15.0 10.6 4.7 50 4.9 N 17 22 9 12 1028.3 1028.3 0.0
24/11:30am 15.4 11.5 5.3 51 4.8 N 15 20 8 11 1028.4 1028.4 0.0
24/11:00am 14.8 12.1 5.6 54 4.4 NNW 9 20 5 11 1028.6 1028.6 0.0
24/10:30am 13.7 12.2 6.8 63 3.4 NW 4 6 2 3 1028.8 1028.8 0.0
24/10:00am 11.5 10.4 6.8 73 2.3 E 2 6 1 3 1028.7 1028.7 0.0
24/09:30am 9.1 8.1 5.8 80 1.5 CALM 0 2 0 1 1028.9 1028.9 0.0
24/09:00am 7.6 6.2 5.4 86 1.0 ENE 2 4 1 2 1028.9 1028.9 0.2
24/08:30am 5.4 4.1 4.2 92 0.5 CALM 0 0 0 0 1028.9 1028.9 0.2
24/08:00am 3.4 1.8 2.2 92 0.5 CALM 0 2 0 1 1029.1 1029.2 0.2
24/07:30am 2.7 0.2 1.4 91 0.5 SW 4 6 2 3 1028.9 1028.9 0.2
24/07:00am 3.0 1.2 1.5 90 0.6 CALM 0 0 0 0 1028.6 1028.6 0.2
24/06:30am 3.0 1.2 1.5 90 0.6 CALM 0 0 0 0 1028.3 1028.3 0.2
24/06:00am 3.5 1.8 1.7 88 0.7 CALM 0 0 0 0 1028.3 1028.3 0.2
24/05:30am 4.3 2.0 2.5 88 0.7 ENE 4 7 2 4 1028.1 1028.1 0.2
24/05:00am 4.6 2.3 2.8 88 0.7 NNE 4 6 2 3 1028.1 1028.1 0.2
24/04:30am 5.5 4.1 3.7 88 0.8 CALM 0 4 0 2 1028.0 1028.0 0.2
24/04:00am 6.1 3.4 3.9 86 1.0 ENE 7 9 4 5 1027.7 1027.7 0.2
24/03:30am 6.3 2.5 4.0 85 1.0 ENE 13 15 7 8 1027.6 1027.6 0.2
24/03:00am 5.3 2.1 3.2 86 0.9 ENE 9 15 5 8 1027.9 1027.9 0.2
24/02:30am 4.8 3.0 3.6 92 0.5 NE 2 6 1 3 1028.1 1028.1 0.2
24/02:00am 2.6 0.1 1.4 92 0.5 NNE 4 6 2 3 1028.1 1028.1 0.2
24/01:30am 2.2 0.4 0.9 91 0.5 CALM 0 0 0 0 1028.2 1028.2 0.2
24/01:00am 3.0 1.3 1.7 91 0.5 CALM 0 2 0 1 1028.2 1028.2 0.2
24/12:30am 2.9 0.8 1.6 91 0.5 WSW 2 4 1 2 1028.3 1028.3 0.2
24/12:00am 2.8 1.0 1.2 89 0.6 CALM 0 0 0 0 1028.5 1028.5 0.2
 
Date/Time
CST
Temp
°C
App
Temp
°C
Dew
Point
Rel
Hum
%
Delta-T
°C
Wind Press
QNH
hPa
Press
MSL
hPa
Rain
since 9 am
mm
Dir
 
Spd
km/h
Gust
km/h
Spd
kts
Gust
kts
23/11:30pm 3.4 1.7 1.8 89 0.6 CALM 0 0 0 0 1028.4 1028.4 0.2
23/11:00pm 3.9 2.3 2.3 89 0.7 CALM 0 0 0 0 1028.4 1028.4 0.2
23/10:30pm 4.2 2.6 2.4 88 0.7 CALM 0 0 0 0 1028.5 1028.5 0.2
23/10:00pm 5.1 3.6 3.0 86 0.9 CALM 0 0 0 0 1028.7 1028.7 0.2
23/09:30pm 6.2 4.8 3.5 83 1.1 CALM 0 0 0 0 1028.9 1028.9 0.2
23/09:00pm 7.7 6.6 5.3 85 1.1 CALM 0 0 0 0 1028.9 1028.9 0.2
23/08:30pm 8.6 6.0 5.9 83 1.2 ESE 9 9 5 5 1028.6 1028.6 0.2
23/08:00pm 8.2 5.5 5.8 85 1.1 ESE 9 11 5 6 1028.5 1028.5 0.2
23/07:30pm 8.1 5.7 5.4 83 1.2 E 7 7 4 4 1028.8 1028.8 0.2
23/07:00pm 9.7 8.0 5.9 77 1.8 SE 4 6 2 3 1028.6 1028.6 0.2
23/06:30pm 10.4 8.3 6.0 74 2.1 SSE 6 7 3 4 1028.4 1028.4 0.2
23/06:00pm 11.2 9.2 6.1 71 2.4 SSE 6 7 3 4 1028.4 1028.4 0.2
23/05:30pm 11.8 9.6 6.1 68 2.7 SE 7 11 4 6 1028.2 1028.2 0.2
23/05:00pm 13.1 10.5 6.2 63 3.3 SE 9 11 5 6 1028.1 1028.1 0.2
23/04:30pm 14.0 11.0 6.1 59 3.8 SSE 11 13 6 7 1028.1 1028.1 0.2
23/04:00pm 14.8 12.3 6.6 58 4.0 SSE 9 17 5 9 1028.3 1028.3 0.2
23/03:30pm 15.1 12.7 6.9 58 4.0 SSE 9 15 5 8 1028.2 1028.2 0.2
23/03:00pm 15.1 12.7 6.9 58 4.1 SSE 9 15 5 8 1028.1 1028.1 0.2
23/02:30pm 15.0 12.6 6.8 58 4.0 SSE 9 15 5 8 1027.9 1027.9 0.2
23/02:00pm 15.0 13.1 6.8 58 4.1 S 6 9 3 5 1028.3 1028.3 0.2
23/01:30pm 14.5 12.7 7.3 62 3.6 SE 6 11 3 6 1028.6 1028.6 0.2
23/01:00pm 14.2 12.6 7.9 66 3.2 E 6 9 3 5 1029.0 1029.1 0.0
23/12:30pm 13.0 12.6 8.1 72 2.4 CALM 0 2 0 1 1029.7 1029.7 0.0
23/12:00pm 10.7 9.7 7.4 80 1.6 WSW 2 6 1 3 1030.1 1030.1 0.0
23/11:30am 8.6 7.8 6.7 88 0.9 CALM 0 2 0 1 1030.7 1030.7 0.0
23/11:00am 7.8 6.7 6.7 93 0.5 SSW 2 4 1 2 1031.1 1031.1 0.0
23/10:30am 7.2 5.9 6.1 93 0.5 SSW 2 6 1 3 1031.4 1031.4 0.0
23/10:00am 6.6 4.9 5.7 94 0.4 SSW 4 7 2 4 1031.5 1031.5 0.0
23/09:30am 6.4 4.6 5.5 94 0.4 SSE 4 6 2 3 1031.5 1031.5 0.0
23/09:00am 5.6 4.0 4.7 94 0.4 SE 2 4 1 2 1031.4 1031.4 0.0
23/08:30am 4.9 3.6 4.0 94 0.4 CALM 0 2 0 1 1031.2 1031.2 0.0
23/08:00am 4.2 2.0 3.3 94 0.4 SW 4 4 2 2 1031.1 1031.1 0.0
23/07:30am 2.8 0.4 1.9 94 0.4 SSW 4 6 2 3 1031.0 1031.0 0.0
23/07:00am 2.2 -0.4 1.2 93 0.4 SW 4 6 2 3 1030.7 1030.7 0.0
23/06:30am 2.9 -0.1 1.9 93 0.4 WSW 7 7 4 4 1030.4 1030.4 0.0
23/06:00am 2.1 -0.9 1.1 93 0.4 SW 6 7 3 4 1030.2 1030.2 0.0
23/05:30am 2.7 -0.3 1.7 93 0.4 WSW 7 9 4 5 1030.1 1030.1 0.0
23/05:00am 3.1 0.3 2.1 93 0.4 SW 6 7 3 4 1029.9 1029.9 0.0
23/04:30am 3.2 0.4 2.2 93 0.4 SW 6 7 3 4 1029.8 1029.8 0.0
23/04:00am 3.4 1.0 2.2 92 0.5 SW 4 4 2 2 1029.9 1029.9 0.0
23/03:30am 3.9 1.2 2.7 92 0.5 SSW 6 6 3 3 1029.8 1029.8 0.0
23/03:00am 3.9 1.2 2.7 92 0.5 SW 6 7 3 4 1029.9 1029.9 0.0
23/02:30am 4.4 2.2 3.1 91 0.5 SW 4 6 2 3 1029.8 1029.8 0.0
23/02:00am 5.5 2.9 4.3 92 0.5 SSW 7 9 4 5 1029.9 1029.9 0.0
23/01:30am 5.5 2.5 4.3 92 0.5 SW 9 11 5 6 1030.1 1030.1 0.0
23/01:00am 5.9 3.0 4.4 90 0.7 WSW 9 13 5 7 1030.1 1030.1 0.0
23/12:30am 5.9 3.3 4.2 89 0.7 SW 7 11 4 6 1030.1 1030.1 0.0
23/12:00am 6.4 3.9 4.7 89 0.7 WSW 7 9 4 5 1030.0 1030.0 0.0
 
Date/Time
CST
Temp
°C
App
Temp
°C
Dew
Point
Rel
Hum
%
Delta-T
°C
Wind Press
QNH
hPa
Press
MSL
hPa
Rain
since 9 am
mm
Dir
 
Spd
km/h
Gust
km/h
Spd
kts
Gust
kts
22/11:30pm 7.5 5.6 5.1 85 1.1 S 4 9 2 5 1030.1 1030.1 0.0
22/11:00pm 8.3 5.7 5.9 85 1.1 SSW 9 13 5 7 1029.9 1029.9 0.0
22/10:30pm 8.6 5.3 6.2 85 1.1 S 13 20 7 11 1029.7 1029.7 0.0
22/10:00pm 8.0 5.8 6.1 88 0.9 S 7 9 4 5 1030.0 1030.0 0.0
22/09:30pm 8.5 6.4 6.6 88 0.9 S 7 11 4 6 1030.1 1030.1 0.0
22/09:00pm 8.2 6.2 6.3 88 0.9 SSW 6 7 3 4 1030.2 1030.2 0.0
22/08:30pm 8.6 6.7 6.6 87 0.9 S 6 9 3 5 1030.1 1030.1 0.0
22/08:00pm 9.3 7.3 7.3 87 1.0 S 7 9 4 5 1030.0 1030.0 0.0
22/07:30pm 8.7 7.1 6.3 85 1.1 S 4 7 2 4 1030.1 1030.1 0.0
22/07:00pm 9.3 7.4 6.9 85 1.1 SSE 6 9 3 5 1030.0 1030.0 0.0
22/06:30pm 9.2 6.7 6.6 84 1.2 SSE 9 13 5 7 1029.8 1029.8 0.0
22/06:00pm 9.9 8.4 6.8 81 1.5 SSE 4 6 2 3 1029.6 1029.6 0.0
22/05:30pm 10.4 7.2 6.9 79 1.7 SSE 13 20 7 11 1029.0 1029.1 0.0

Other Formats:

Comma delimited format used in spreadsheet applications
http://www.bom.gov.au/fwo/IDS60801/IDS60801.94684.axf

JavaScript Object Notation format (JSON) in row-major order
http://www.bom.gov.au/fwo/IDS60801/IDS60801.94684.json